Time;durP1;ratioP1;P1;durP2;ratioP2;P2;SDS_P1;SDS_P2;PMS_P1;PMS_P2;Temp;Humidity;BMP_temperature;BMP_pressure;BME280_temperature;BME280_humidity;BME280_pressure;Samples;Min_cycle;Max_cycle;Signal;HPM_P1;HPM_P2
2024/04/08 00:00:52;;;;;;;1.73;0.60;;;;;20.60;100103.00;;;;2039868;28;20291;-57
2024/04/08 00:01:52;;;;;;;3.10;0.90;;;;;20.60;100099.00;;;;2051661;28;20215;-58
2024/04/08 00:02:52;;;;;;;2.33;0.80;;;;;20.60;100092.00;;;;2053287;28;20705;-58
2024/04/08 00:03:53;;;;;;;2.80;1.00;;;;;20.60;100101.00;;;;2051394;28;20215;-58
2024/04/08 00:04:53;;;;;;;1.90;0.70;;;;;20.60;100091.00;;;;2053238;28;20270;-57
2024/04/08 00:05:53;;;;;;;3.77;0.90;;;;;20.60;100097.00;;;;2037879;28;20251;-58
2024/04/08 00:06:54;;;;;;;1.70;0.80;;;;;20.60;100095.00;;;;2057144;28;20227;-58
2024/04/08 00:07:54;;;;;;;2.00;0.77;;;;;20.60;100099.00;;;;2047282;28;20224;-57
2024/04/08 00:08:54;;;;;;;2.20;0.70;;;;;20.60;100110.00;;;;2051522;28;20220;-57
2024/04/08 00:09:55;;;;;;;2.60;0.80;;;;;20.60;100116.00;;;;2053188;28;20293;-58
2024/04/08 00:10:55;;;;;;;1.83;0.77;;;;;20.60;100102.00;;;;2036451;28;20228;-58
2024/04/08 00:11:55;;;;;;;2.10;0.70;;;;;20.60;100111.00;;;;2052090;28;20314;-57
2024/04/08 00:12:56;;;;;;;2.10;0.70;;;;;20.60;100098.00;;;;2053326;28;20212;-58
2024/04/08 00:13:56;;;;;;;2.03;0.80;;;;;20.60;100107.00;;;;2051791;28;20212;-58
2024/04/08 00:14:56;;;;;;;1.97;0.70;;;;;20.60;100101.00;;;;2051832;28;20229;-57
2024/04/08 00:15:58;;;;;;;2.90;0.87;;;;;20.60;100102.00;;;;2037874;28;20227;-58
2024/04/08 00:16:58;;;;;;;1.70;0.60;;;;;20.60;100111.00;;;;2046669;28;20304;-57
2024/04/08 00:17:58;;;;;;;1.70;0.77;;;;;20.60;100114.00;;;;2052195;28;21619;-58
2024/04/08 00:19:00;;;;;;;1.70;0.60;;;;;20.60;100118.00;;;;2048210;28;20549;-57
2024/04/08 00:20:00;;;;;;;1.77;0.73;;;;;20.60;100117.00;;;;2051964;28;20771;-57
2024/04/08 00:21:05;;;;;;;2.27;0.70;;;;;20.60;100118.00;;;;2042142;28;20224;-58
2024/04/08 00:22:05;;;;;;;2.08;0.90;;;;;20.60;100113.00;;;;2048828;28;20317;-58
2024/04/08 00:23:05;;;;;;;1.50;0.60;;;;;20.60;100113.00;;;;2049983;28;20279;-57
2024/04/08 00:24:06;;;;;;;2.10;0.67;;;;;20.60;100111.00;;;;2048729;28;20216;-58
2024/04/08 00:25:08;;;;;;;2.03;0.80;;;;;20.60;100115.00;;;;2052262;28;20216;-58
2024/04/08 00:26:08;;;;;;;2.97;0.80;;;;;20.60;100106.00;;;;2042735;28;20287;-58
2024/04/08 00:27:08;;;;;;;3.20;0.77;;;;;20.60;100113.00;;;;2047846;28;20278;-58
2024/04/08 00:28:09;;;;;;;1.80;0.70;;;;;20.60;100117.00;;;;2048340;28;20307;-58
2024/04/08 00:29:09;;;;;;;2.50;0.80;;;;;20.60;100119.00;;;;2048629;28;20220;-58
2024/04/08 00:30:09;;;;;;;1.87;0.70;;;;;19.80;100114.00;;;;2054935;28;20223;-58
2024/04/08 00:31:10;;;;;;;1.90;0.70;;;;;20.60;100108.00;;;;2046968;28;20224;-58
2024/04/08 00:32:11;;;;;;;1.97;0.80;;;;;20.60;100107.00;;;;2051411;28;20226;-58
2024/04/08 00:33:12;;;;;;;2.10;0.67;;;;;20.60;100098.00;;;;2048709;28;20470;-58
2024/04/08 00:34:12;;;;;;;2.47;0.80;;;;;20.60;100097.00;;;;2052941;28;20466;-57
2024/04/08 00:35:12;;;;;;;2.33;0.93;;;;;20.60;100095.00;;;;2051050;28;20243;-58
2024/04/08 00:36:13;;;;;;;2.23;0.80;;;;;20.60;100092.00;;;;2043101;28;20212;-58
2024/04/08 00:37:13;;;;;;;1.90;0.70;;;;;20.60;100097.00;;;;2047619;28;20286;-58
2024/04/08 00:38:13;;;;;;;1.87;0.67;;;;;20.60;100104.00;;;;2052691;28;20579;-58
2024/04/08 00:39:14;;;;;;;1.90;0.80;;;;;20.60;100101.00;;;;2051998;28;20215;-58
2024/04/08 00:40:14;;;;;;;2.47;0.90;;;;;20.60;100089.00;;;;2052171;28;20601;-60
2024/04/08 00:41:14;;;;;;;2.47;0.80;;;;;20.60;100100.00;;;;2042894;28;20223;-58
2024/04/08 00:42:15;;;;;;;2.47;1.00;;;;;20.60;100089.00;;;;2051332;28;20255;-58
2024/04/08 00:43:15;;;;;;;3.23;0.70;;;;;20.60;100091.00;;;;2049280;28;20214;-58
2024/04/08 00:44:15;;;;;;;1.90;0.70;;;;;20.60;100088.00;;;;2041552;28;20211;-58
2024/04/08 00:45:16;;;;;;;2.10;0.80;;;;;20.60;100088.00;;;;2051967;28;20230;-58
2024/04/08 00:46:22;;;;;;;1.60;0.60;;;;;20.60;100093.00;;;;2041239;28;20363;-58
2024/04/08 00:47:23;;;;;;;1.70;0.57;;;;;20.60;100070.00;;;;2050509;28;20597;-57
2024/04/08 00:48:23;;;;;;;2.07;0.50;;;;;20.60;100093.00;;;;2049916;28;20235;-57
2024/04/08 00:49:23;;;;;;;1.67;0.73;;;;;20.60;100101.00;;;;2051081;28;20219;-57
2024/04/08 00:50:24;;;;;;;2.03;0.73;;;;;20.60;100105.00;;;;2052901;28;20231;-58
2024/04/08 00:51:24;;;;;;;2.17;0.80;;;;;20.60;100102.00;;;;2041432;28;20235;-57
2024/04/08 00:52:24;;;;;;;2.70;0.80;;;;;20.60;100115.00;;;;2048692;28;20218;-58
2024/04/08 00:53:25;;;;;;;1.60;0.67;;;;;20.60;100108.00;;;;2049974;28;20212;-57
2024/04/08 00:54:28;;;;;;;2.73;0.80;;;;;20.60;100126.00;;;;2051372;28;20231;-58
2024/04/08 00:55:28;;;;;;;3.00;0.77;;;;;20.60;100121.00;;;;2040918;28;20266;-57
2024/04/08 00:56:29;;;;;;;1.80;0.80;;;;;20.60;100116.00;;;;2051863;28;20658;-57
2024/04/08 00:57:29;;;;;;;1.70;0.63;;;;;20.60;100118.00;;;;2053881;28;20627;-57
2024/04/08 00:58:31;;;;;;;2.03;0.73;;;;;20.60;100115.00;;;;2051546;28;20231;-58
2024/04/08 00:59:32;;;;;;;1.95;0.75;;;;;20.60;100117.00;;;;2052001;28;20685;-57
2024/04/08 01:00:33;;;;;;;2.83;0.60;;;;;20.60;100113.00;;;;2041895;28;20298;-57
2024/04/08 01:01:33;;;;;;;2.20;0.77;;;;;20.60;100110.00;;;;2051559;28;20286;-56
2024/04/08 01:02:33;;;;;;;1.50;0.60;;;;;20.60;100115.00;;;;2052507;28;20703;-57
2024/04/08 01:03:34;;;;;;;1.90;0.57;;;;;20.60;100107.00;;;;2050831;28;20216;-57
2024/04/08 01:04:34;;;;;;;3.30;0.97;;;;;20.60;100107.00;;;;2052009;28;20230;-57
2024/04/08 01:05:35;;;;;;;1.87;0.83;;;;;20.60;100106.00;;;;2038019;28;20236;-57
2024/04/08 01:06:35;;;;;;;1.90;0.80;;;;;20.60;100108.00;;;;2051689;28;20247;-56
2024/04/08 01:07:35;;;;;;;2.63;0.80;;;;;20.60;100109.00;;;;2051635;28;20239;-57
2024/04/08 01:08:36;;;;;;;2.33;0.70;;;;;20.60;100022.00;;;;2051934;28;20930;-56
2024/04/08 01:09:36;;;;;;;1.93;0.80;;;;;20.60;100103.00;;;;2052838;28;20633;-57
2024/04/08 01:10:38;;;;;;;2.97;0.90;;;;;20.60;100105.00;;;;2038121;28;20634;-57
2024/04/08 01:11:40;;;;;;;2.03;0.80;;;;;20.60;100096.00;;;;2051971;28;20231;-57
2024/04/08 01:12:41;;;;;;;2.30;0.68;;;;;20.60;100106.00;;;;2051978;28;20231;-57
2024/04/08 01:13:41;;;;;;;3.10;0.97;;;;;20.60;100101.00;;;;2050681;28;20234;-58
2024/04/08 01:14:41;;;;;;;5.00;0.80;;;;;20.60;100102.00;;;;2044515;28;20224;-58
2024/04/08 01:15:42;;;;;;;2.93;0.90;;;;;20.60;100092.00;;;;2043477;28;20239;-58
2024/04/08 01:16:42;;;;;;;2.27;0.83;;;;;20.60;100102.00;;;;2044203;28;20224;-58
2024/04/08 01:17:42;;;;;;;1.90;0.70;;;;;20.60;100096.00;;;;2050294;28;20262;-57
2024/04/08 01:18:43;;;;;;;1.90;0.60;;;;;20.60;100090.00;;;;2050275;28;20223;-57
2024/04/08 01:19:44;;;;;;;1.90;0.83;;;;;20.60;100101.00;;;;2052664;28;20220;-57
2024/04/08 01:20:45;;;;;;;2.15;1.15;;;;;20.60;100102.00;;;;2046421;28;20341;-58
2024/04/08 01:21:46;;;;;;;1.83;0.70;;;;;20.60;100101.00;;;;2047942;28;20228;-61
2024/04/08 01:22:46;;;;;;;2.30;0.90;;;;;20.60;100107.00;;;;2051618;28;20222;-58
2024/04/08 01:23:46;;;;;;;2.43;1.00;;;;;20.60;100112.00;;;;2051991;28;20463;-58
2024/04/08 01:24:47;;;;;;;1.80;0.60;;;;;20.60;100110.00;;;;2051482;28;20255;-57
2024/04/08 01:25:47;;;;;;;1.67;0.60;;;;;20.60;100109.00;;;;2049708;28;20238;-57
2024/04/08 01:26:47;;;;;;;1.63;0.70;;;;;20.60;100104.00;;;;2052469;28;20223;-57
2024/04/08 01:27:48;;;;;;;2.20;0.60;;;;;20.60;100116.00;;;;2051504;28;20235;-57
2024/04/08 01:28:50;;;;;;;1.70;0.60;;;;;20.60;100100.00;;;;2052441;28;20212;-57
2024/04/08 01:29:50;;;;;;;2.67;0.85;;;;;20.60;100103.00;;;;2051531;28;20303;-57
2024/04/08 01:30:50;;;;;;;2.63;0.80;;;;;20.60;100099.00;;;;2042934;28;20234;-57
2024/04/08 01:31:51;;;;;;;2.30;0.77;;;;;20.60;100091.00;;;;2051384;28;20239;-57
2024/04/08 01:32:51;;;;;;;3.40;0.93;;;;;20.30;100077.00;;;;2052498;28;20255;-57
2024/04/08 01:33:52;;;;;;;2.33;0.70;;;;;20.60;100077.00;;;;2052436;28;20215;-58
2024/04/08 01:34:52;;;;;;;1.60;0.60;;;;;20.60;100076.00;;;;2051643;28;20226;-57
2024/04/08 01:36:04;;;;;;;2.00;0.77;;;;;20.60;100068.00;;;;2042533;28;20263;-58
2024/04/08 01:37:04;;;;;;;2.30;0.88;;;;;20.60;100081.00;;;;2049386;28;20728;-57
2024/04/08 01:38:04;;;;;;;1.93;0.60;;;;;20.20;100080.00;;;;2052435;28;20212;-58
2024/04/08 01:39:04;;;;;;;2.00;0.93;;;;;20.60;100083.00;;;;2051562;28;20211;-57
2024/04/08 01:40:05;;;;;;;1.60;0.70;;;;;20.60;100075.00;;;;2052430;28;20237;-57
2024/04/08 01:41:06;;;;;;;1.90;0.80;;;;;20.60;100065.00;;;;2047350;28;20896;-58
2024/04/08 01:42:06;;;;;;;2.17;0.73;;;;;20.60;100078.00;;;;2055381;28;20648;-57
2024/04/08 01:43:06;;;;;;;1.60;0.63;;;;;20.60;100076.00;;;;2054321;28;20825;-57
2024/04/08 01:44:07;;;;;;;2.27;0.77;;;;;20.60;100080.00;;;;2051444;28;20220;-57
2024/04/08 01:45:07;;;;;;;1.80;0.60;;;;;20.20;100090.00;;;;2052273;28;20230;-57
2024/04/08 01:46:07;;;;;;;2.33;0.60;;;;;20.60;100095.00;;;;2041599;28;20235;-57
2024/04/08 01:47:07;;;;;;;2.10;0.80;;;;;20.60;100088.00;;;;2052154;28;20310;-57
2024/04/08 01:48:08;;;;;;;1.63;0.70;;;;;20.60;100097.00;;;;2052443;28;20223;-58
2024/04/08 01:49:08;;;;;;;3.10;1.13;;;;;20.60;100099.00;;;;2051328;28;20347;-58
2024/04/08 01:50:09;;;;;;;2.20;0.80;;;;;20.60;100096.00;;;;2052229;28;20274;-57
2024/04/08 01:51:10;;;;;;;2.40;0.70;;;;;20.60;100090.00;;;;2041073;28;20230;-57
2024/04/08 01:52:10;;;;;;;2.27;0.87;;;;;20.60;100081.00;;;;2051522;28;20220;-57
2024/04/08 01:53:10;;;;;;;2.00;0.70;;;;;20.60;100084.00;;;;2047905;28;20251;-58
2024/04/08 01:54:12;;;;;;;1.77;0.70;;;;;20.60;100078.00;;;;2051390;28;20219;-57
2024/04/08 01:55:12;;;;;;;2.35;0.73;;;;;20.60;100067.00;;;;2052371;28;20235;-58
2024/04/08 01:56:13;;;;;;;1.80;0.77;;;;;20.60;100076.00;;;;2041596;28;20227;-58
2024/04/08 01:57:13;;;;;;;3.20;0.93;;;;;20.60;100075.00;;;;2050467;28;20231;-57
2024/04/08 01:58:13;;;;;;;2.03;0.80;;;;;20.60;100063.00;;;;2048208;28;20230;-57
2024/04/08 01:59:14;;;;;;;2.33;0.70;;;;;20.60;100080.00;;;;2055101;28;20251;-57
2024/04/08 02:00:14;;;;;;;2.00;0.70;;;;;20.60;100060.00;;;;2052055;28;20256;-57
2024/04/08 02:01:14;;;;;;;2.40;0.60;;;;;20.60;100055.00;;;;2041637;28;20656;-57
2024/04/08 02:02:15;;;;;;;2.20;0.90;;;;;20.60;100044.00;;;;2051438;28;20245;-58
2024/04/08 02:03:15;;;;;;;2.03;0.80;;;;;20.60;100043.00;;;;2051702;28;20302;-58
2024/04/08 02:04:15;;;;;;;2.07;0.70;;;;;20.60;100040.00;;;;2050853;28;20227;-57
2024/04/08 02:05:16;;;;;;;3.33;1.00;;;;;20.60;100038.00;;;;2050626;28;20218;-57
2024/04/08 02:06:16;;;;;;;2.03;0.70;;;;;20.60;100030.00;;;;2040373;28;20492;-59
2024/04/08 02:07:17;;;;;;;2.10;0.73;;;;;20.60;100028.00;;;;2051681;28;20255;-60
2024/04/08 02:08:17;;;;;;;2.30;0.80;;;;;20.60;100031.00;;;;2051627;28;20219;-58
2024/04/08 02:09:17;;;;;;;1.77;0.80;;;;;20.60;100034.00;;;;2052367;28;20219;-58
2024/04/08 02:10:18;;;;;;;2.30;1.03;;;;;20.60;100041.00;;;;2049947;28;20692;-57
2024/04/08 02:11:18;;;;;;;2.50;0.60;;;;;20.60;100029.00;;;;2042472;28;20342;-57
2024/04/08 02:12:19;;;;;;;2.27;0.80;;;;;20.60;100024.00;;;;2050012;28;20242;-57
2024/04/08 02:13:19;;;;;;;1.70;0.80;;;;;20.60;100020.00;;;;2051005;28;20231;-57
2024/04/08 02:14:19;;;;;;;2.10;0.73;;;;;20.60;100018.00;;;;2052283;28;20216;-58
2024/04/08 02:15:20;;;;;;;2.23;0.80;;;;;20.60;100033.00;;;;2051111;28;20366;-58
2024/04/08 02:16:20;;;;;;;2.00;0.70;;;;;20.60;100041.00;;;;2042401;28;20226;-57
2024/04/08 02:17:21;;;;;;;2.30;0.80;;;;;20.60;100042.00;;;;2051432;28;20223;-58
2024/04/08 02:18:21;;;;;;;2.50;0.80;;;;;20.60;100047.00;;;;2054551;28;20226;-57
2024/04/08 02:19:26;;;;;;;2.00;0.80;;;;;20.20;100034.00;;;;2052068;28;20299;-58
2024/04/08 02:20:27;;;;;;;2.15;1.00;;;;;20.60;100026.00;;;;2040347;28;20306;-58
2024/04/08 02:21:27;;;;;;;3.63;0.77;;;;;20.60;100021.00;;;;2050203;28;20696;-57
2024/04/08 02:22:27;;;;;;;1.80;0.70;;;;;20.60;100035.00;;;;2048370;28;20789;-57
2024/04/08 02:23:28;;;;;;;3.03;1.10;;;;;20.60;100052.00;;;;2052090;28;20219;-57
2024/04/08 02:24:28;;;;;;;2.43;1.00;;;;;20.60;100060.00;;;;2051784;28;20302;-57
2024/04/08 02:25:28;;;;;;;2.00;0.67;;;;;20.60;100035.00;;;;2042954;28;20818;-58
2024/04/08 02:26:29;;;;;;;2.43;0.80;;;;;20.60;100019.00;;;;2048595;28;20697;-57
2024/04/08 02:27:29;;;;;;;1.87;0.87;;;;;20.30;100014.00;;;;2049596;28;20895;-58
2024/04/08 02:28:36;;;;;;;3.30;0.87;;;;;20.60;100016.00;;;;2052294;28;20735;-57
2024/04/08 02:29:36;;;;;;;2.10;0.70;;;;;20.60;100021.00;;;;2052690;28;20219;-57
2024/04/08 02:30:37;;;;;;;2.17;0.80;;;;;20.60;100014.00;;;;2042306;28;20228;-58
2024/04/08 02:31:37;;;;;;;2.20;0.93;;;;;20.60;100013.00;;;;2046229;28;20697;-58
2024/04/08 02:32:38;;;;;;;2.27;0.80;;;;;20.60;100017.00;;;;2052080;28;20429;-57
2024/04/08 02:33:40;;;;;;;4.03;0.80;;;;;20.60;100006.00;;;;2051252;28;20270;-58
2024/04/08 02:34:40;;;;;;;1.90;0.73;;;;;20.60;100012.00;;;;2053197;28;20215;-58
2024/04/08 02:35:40;;;;;;;1.93;0.70;;;;;20.60;100006.00;;;;2042571;28;20728;-58
2024/04/08 02:36:41;;;;;;;2.47;1.03;;;;;20.50;100008.00;;;;2047954;28;20250;-58
2024/04/08 02:37:42;;;;;;;1.70;0.57;;;;;20.60;100003.00;;;;2050373;28;20207;-58
2024/04/08 02:38:42;;;;;;;1.90;0.65;;;;;20.60;100000.00;;;;2051529;28;20227;-57
2024/04/08 02:39:43;;;;;;;2.37;0.90;;;;;20.60;100004.00;;;;2050933;28;20215;-57
2024/04/08 02:40:43;;;;;;;1.70;0.80;;;;;20.60;100002.00;;;;2041973;28;20219;-57
2024/04/08 02:41:43;;;;;;;2.40;0.80;;;;;20.60;100010.00;;;;2050558;28;20302;-57
2024/04/08 02:42:44;;;;;;;2.67;0.80;;;;;20.60;100005.00;;;;2051539;28;20282;-58
2024/04/08 02:43:44;;;;;;;1.60;0.60;;;;;20.60;100002.00;;;;2051300;28;20227;-57
2024/04/08 02:44:44;;;;;;;1.93;0.63;;;;;20.60;100006.00;;;;2045744;28;20228;-57
2024/04/08 02:45:45;;;;;;;2.10;0.97;;;;;20.60;100025.00;;;;2041307;28;20249;-57
2024/04/08 02:46:45;;;;;;;2.30;0.87;;;;;20.60;100000.00;;;;2051044;28;20223;-58
2024/04/08 02:47:46;;;;;;;1.80;0.70;;;;;20.50;100007.00;;;;2051902;28;20681;-58
2024/04/08 02:48:46;;;;;;;1.80;0.70;;;;;20.60;100000.00;;;;2050237;28;20228;-58
2024/04/08 02:49:46;;;;;;;2.27;0.93;;;;;20.60;99985.00;;;;2044127;28;20252;-57
2024/04/08 02:50:47;;;;;;;1.87;0.70;;;;;20.50;99988.00;;;;2033702;28;20236;-57
2024/04/08 02:51:47;;;;;;;2.00;0.80;;;;;20.50;99981.00;;;;2050153;28;20581;-60
2024/04/08 02:52:47;;;;;;;1.80;0.70;;;;;20.60;99994.00;;;;2052119;28;20219;-58
2024/04/08 02:53:48;;;;;;;2.20;0.90;;;;;20.60;99984.00;;;;2051764;28;20634;-58
2024/04/08 02:54:48;;;;;;;2.13;0.80;;;;;20.50;99985.00;;;;2052083;28;20235;-57
2024/04/08 02:55:48;;;;;;;2.77;0.60;;;;;20.60;99989.00;;;;2041222;28;20250;-57
2024/04/08 02:56:48;;;;;;;2.40;0.80;;;;;20.60;99990.00;;;;2052578;28;20223;-58
2024/04/08 02:57:49;;;;;;;1.80;0.80;;;;;20.60;99993.00;;;;2053308;28;20231;-58
2024/04/08 02:58:49;;;;;;;1.60;0.70;;;;;20.60;99988.00;;;;2052228;28;20253;-57
2024/04/08 02:59:50;;;;;;;2.00;0.80;;;;;20.60;99991.00;;;;2053474;28;20307;-57
2024/04/08 03:00:50;;;;;;;2.53;0.90;;;;;20.50;99990.00;;;;2036943;28;20343;-58
2024/04/08 03:01:50;;;;;;;2.30;0.77;;;;;20.50;99990.00;;;;2050923;28;20309;-57
2024/04/08 03:04:44;;;;;;;2.40;1.00;;;;;20.60;99987.00;;;;2226633;25;20562;-56
2024/04/08 03:05:45;;;;;;;1.77;0.60;;;;;20.50;99981.00;;;;2213236;26;20359;-56
2024/04/08 03:06:45;;;;;;;2.50;0.87;;;;;20.50;99981.00;;;;2212235;26;20337;-55
2024/04/08 03:07:45;;;;;;;2.80;0.93;;;;;20.50;99986.00;;;;2210259;26;20255;-55
2024/04/08 03:08:45;;;;;;;2.90;0.80;;;;;20.50;99986.00;;;;2224942;26;20250;-56
2024/04/08 03:09:52;;;;;;;1.60;0.60;;;;;20.50;99984.00;;;;2212354;26;20255;-56
2024/04/08 03:10:57;;;;;;;2.70;0.80;;;;;20.50;99979.00;;;;2199163;26;20800;-56
2024/04/08 03:11:57;;;;;;;2.55;0.75;;;;;20.50;99976.00;;;;2212974;26;20254;-56
2024/04/08 03:12:58;;;;;;;2.77;0.80;;;;;20.50;99869.00;;;;2209322;26;20915;-56
2024/04/08 03:13:58;;;;;;;2.37;0.80;;;;;20.50;99969.00;;;;2219532;26;20567;-56
2024/04/08 03:14:59;;;;;;;1.80;0.70;;;;;20.50;99966.00;;;;2211804;26;20306;-56
2024/04/08 03:15:59;;;;;;;1.70;0.67;;;;;20.50;99965.00;;;;2212179;26;20250;-56
2024/04/08 03:16:59;;;;;;;1.80;0.60;;;;;20.50;99963.00;;;;2214372;26;20246;-56
2024/04/08 03:18:00;;;;;;;2.23;0.73;;;;;20.50;99961.00;;;;2210507;26;20357;-56
2024/04/08 03:19:00;;;;;;;2.00;0.70;;;;;20.50;99951.00;;;;2221041;26;20285;-56
2024/04/08 03:20:01;;;;;;;3.87;1.17;;;;;20.50;99951.00;;;;2209225;26;20252;-55
2024/04/08 03:21:02;;;;;;;1.77;0.73;;;;;20.50;99947.00;;;;2201363;26;20248;-56
2024/04/08 03:22:03;;;;;;;1.95;0.80;;;;;20.50;99943.00;;;;2211889;26;21014;-56
2024/04/08 03:23:03;;;;;;;2.80;0.80;;;;;20.50;99935.00;;;;2212625;26;20374;-56
2024/04/08 03:24:03;;;;;;;1.93;0.80;;;;;20.50;99936.00;;;;2217765;26;20334;-56
2024/04/08 03:25:04;;;;;;;2.73;0.70;;;;;20.50;99941.00;;;;2212437;26;20263;-56
2024/04/08 03:26:08;;;;;;;1.90;0.80;;;;;20.50;99945.00;;;;2200214;26;20257;-56
2024/04/08 03:27:08;;;;;;;2.17;0.90;;;;;20.40;99941.00;;;;2209088;26;20550;-56
2024/04/08 03:28:09;;;;;;;2.50;0.80;;;;;20.50;99959.00;;;;2215715;26;20357;-55
2024/04/08 03:29:09;;;;;;;2.37;0.83;;;;;20.50;99947.00;;;;2217278;26;20263;-56
2024/04/08 03:30:09;;;;;;;2.13;0.80;;;;;20.50;99952.00;;;;2215388;26;20256;-56
2024/04/08 03:31:10;;;;;;;2.20;0.70;;;;;20.50;99945.00;;;;2200772;26;20260;-56
2024/04/08 03:32:11;;;;;;;2.50;0.80;;;;;20.50;99947.00;;;;2207723;26;20298;-55
2024/04/08 03:33:11;;;;;;;2.83;0.93;;;;;20.60;99939.00;;;;2211380;26;20302;-56
2024/04/08 03:34:11;;;;;;;2.37;0.97;;;;;20.50;99994.00;;;;2209704;26;20722;-55
2024/04/08 03:35:12;;;;;;;1.60;0.50;;;;;20.50;99938.00;;;;2211142;26;20697;-56
2024/04/08 03:36:16;;;;;;;1.97;0.87;;;;;20.50;99942.00;;;;2200198;26;20874;-55
2024/04/08 03:37:16;;;;;;;2.35;0.80;;;;;20.50;99946.00;;;;2210539;26;20303;-59
2024/04/08 03:38:17;;;;;;;1.77;0.77;;;;;20.50;99947.00;;;;2211073;26;20244;-58
2024/04/08 03:39:18;;;;;;;1.87;0.73;;;;;20.50;99943.00;;;;2208441;26;20248;-58
2024/04/08 03:40:18;;;;;;;2.15;0.65;;;;;20.50;99940.00;;;;2217924;26;20430;-59
2024/04/08 03:41:18;;;;;;;3.20;0.80;;;;;20.50;99947.00;;;;2198090;26;20399;-59
2024/04/08 03:42:21;;;;;;;1.77;0.60;;;;;20.50;99946.00;;;;2209793;26;20806;-59
2024/04/08 03:43:21;;;;;;;2.03;0.85;;;;;20.50;99952.00;;;;2215197;26;20310;-58
2024/04/08 03:44:21;;;;;;;1.60;0.70;;;;;20.50;99966.00;;;;2209428;26;20322;-59
2024/04/08 03:45:22;;;;;;;2.17;0.70;;;;;20.50;99966.00;;;;2210309;26;20248;-58
2024/04/08 03:46:22;;;;;;;2.10;0.60;;;;;20.50;99969.00;;;;2198604;26;20248;-58
2024/04/08 03:47:22;;;;;;;1.97;0.73;;;;;20.50;99962.00;;;;2210300;26;20287;-58
2024/04/08 03:48:23;;;;;;;2.37;0.83;;;;;20.50;99962.00;;;;2209203;26;20365;-59
2024/04/08 03:49:23;;;;;;;1.90;0.70;;;;;20.50;99968.00;;;;2217384;26;20250;-58
2024/04/08 03:50:30;;;;;;;2.23;0.90;;;;;20.50;99961.00;;;;2216691;26;20248;-58
2024/04/08 03:51:30;;;;;;;2.58;0.90;;;;;20.50;99962.00;;;;2208638;26;20264;-58
2024/04/08 03:52:31;;;;;;;2.50;0.50;;;;;20.50;99964.00;;;;2215036;26;20880;-59
2024/04/08 03:53:31;;;;;;;1.97;0.60;;;;;20.60;99966.00;;;;2212914;26;20859;-58
2024/04/08 03:54:31;;;;;;;2.63;0.70;;;;;20.50;99966.00;;;;2210927;26;20720;-58
2024/04/08 03:55:32;;;;;;;1.70;0.70;;;;;20.50;99961.00;;;;2198963;26;20968;-58
2024/04/08 03:56:32;;;;;;;2.50;1.07;;;;;20.50;99963.00;;;;2211322;26;20730;-58
2024/04/08 03:57:32;;;;;;;1.70;0.63;;;;;20.60;99964.00;;;;2218011;26;21082;-59
2024/04/08 03:58:33;;;;;;;1.80;0.70;;;;;20.50;99958.00;;;;2212539;26;21121;-58
2024/04/08 03:59:33;;;;;;;3.67;1.00;;;;;20.50;99952.00;;;;2210839;26;20692;-59
2024/04/08 04:00:34;;;;;;;3.20;0.80;;;;;20.50;99960.00;;;;2197193;26;20752;-59
2024/04/08 04:01:34;;;;;;;2.10;0.80;;;;;20.60;99958.00;;;;2198957;26;21339;-59
2024/04/08 04:02:35;;;;;;;1.80;0.70;;;;;20.60;99949.00;;;;2202734;26;20706;-59
2024/04/08 04:03:35;;;;;;;3.20;0.70;;;;;20.50;99951.00;;;;2207723;26;20616;-58
2024/04/08 04:04:36;;;;;;;2.47;0.80;;;;;20.50;99950.00;;;;2211189;26;20578;-58
2024/04/08 04:05:36;;;;;;;1.77;0.50;;;;;20.50;99947.00;;;;2190411;26;20362;-58
2024/04/08 04:06:36;;;;;;;1.87;0.77;;;;;20.50;99946.00;;;;2208207;26;20256;-58
2024/04/08 04:07:37;;;;;;;2.00;0.80;;;;;20.50;99940.00;;;;2211322;26;20256;-58
2024/04/08 04:08:38;;;;;;;1.77;0.70;;;;;20.50;99942.00;;;;2210807;26;20317;-58
2024/04/08 04:09:38;;;;;;;1.77;0.63;;;;;20.50;99942.00;;;;2209725;26;20489;-58
2024/04/08 04:10:38;;;;;;;2.90;0.70;;;;;20.50;99930.00;;;;2200094;26;20603;-58
2024/04/08 04:11:39;;;;;;;1.73;0.67;;;;;20.50;99936.00;;;;2211893;26;20342;-59
2024/04/08 04:12:39;;;;;;;1.70;0.50;;;;;20.50;99929.00;;;;2212112;26;20248;-58
2024/04/08 04:13:39;;;;;;;2.43;0.83;;;;;20.50;99931.00;;;;2210697;26;20252;-59
2024/04/08 04:14:40;;;;;;;2.27;0.70;;;;;20.50;99921.00;;;;2209496;26;20784;-58
2024/04/08 04:15:40;;;;;;;1.80;0.63;;;;;20.60;99917.00;;;;2195877;26;20252;-59
2024/04/08 04:16:41;;;;;;;2.63;1.20;;;;;20.50;99912.00;;;;2204158;26;20390;-59
2024/04/08 04:17:41;;;;;;;2.93;1.10;;;;;20.50;99912.00;;;;2203382;26;20552;-59
2024/04/08 04:18:42;;;;;;;2.50;0.70;;;;;20.50;99921.00;;;;2214713;26;20579;-58
2024/04/08 04:19:42;;;;;;;1.63;0.60;;;;;20.50;99774.00;;;;2204484;26;20591;-58
2024/04/08 04:20:44;;;;;;;2.57;0.70;;;;;20.50;99920.00;;;;2191841;26;20284;-59
2024/04/08 04:21:45;;;;;;;2.00;0.70;;;;;20.50;99926.00;;;;2190608;26;20263;-59
2024/04/08 04:22:46;;;;;;;2.30;0.80;;;;;20.20;99918.00;;;;2200857;26;20241;-59
2024/04/08 04:23:47;;;;;;;3.35;1.00;;;;;20.60;99922.00;;;;2200306;26;20287;-58
2024/04/08 04:24:47;;;;;;;1.70;0.70;;;;;20.50;99921.00;;;;2208036;26;20295;-58
2024/04/08 04:25:53;;;;;;;2.37;0.80;;;;;20.50;99925.00;;;;2199888;26;20285;-58
2024/04/08 04:26:53;;;;;;;2.90;0.82;;;;;20.50;99925.00;;;;2205866;26;20264;-58
2024/04/08 04:27:54;;;;;;;2.00;0.70;;;;;20.50;99930.00;;;;2204013;26;20264;-59
2024/04/08 04:28:54;;;;;;;2.30;0.90;;;;;20.50;99927.00;;;;2203304;26;21490;-58
2024/04/08 04:29:54;;;;;;;2.03;0.60;;;;;20.50;99924.00;;;;2211085;26;21346;-59
2024/04/08 04:30:55;;;;;;;1.60;0.63;;;;;20.50;99920.00;;;;2194607;26;20298;-58
2024/04/08 04:31:56;;;;;;;2.70;1.03;;;;;20.50;99916.00;;;;2202937;26;20298;-58
2024/04/08 04:32:56;;;;;;;2.00;0.80;;;;;20.50;99919.00;;;;2204860;26;20306;-58
2024/04/08 04:33:57;;;;;;;1.80;0.80;;;;;20.50;99920.00;;;;2203288;26;20256;-58
2024/04/08 04:34:57;;;;;;;2.13;0.73;;;;;20.50;99920.00;;;;2212653;26;20578;-58
2024/04/08 04:35:58;;;;;;;2.60;1.00;;;;;20.50;99912.00;;;;2192521;26;21476;-58
2024/04/08 04:36:58;;;;;;;2.47;0.80;;;;;20.50;99910.00;;;;2204639;26;20767;-58
2024/04/08 04:37:58;;;;;;;2.43;0.80;;;;;20.50;99907.00;;;;2209395;26;20810;-58
2024/04/08 04:38:59;;;;;;;1.90;0.80;;;;;20.50;99913.00;;;;2202911;26;20636;-58
2024/04/08 04:39:59;;;;;;;1.97;0.90;;;;;20.50;99922.00;;;;2214436;26;20842;-58
2024/04/08 04:41:04;;;;;;;2.00;0.83;;;;;20.50;99918.00;;;;2193001;26;20353;-58
2024/04/08 04:42:04;;;;;;;1.90;0.65;;;;;20.50;99927.00;;;;2203624;26;20251;-58
2024/04/08 04:43:04;;;;;;;2.03;0.80;;;;;20.50;99928.00;;;;2203341;26;21035;-59
2024/04/08 04:44:05;;;;;;;2.30;0.77;;;;;20.50;99924.00;;;;2204114;26;20303;-58
2024/04/08 04:45:05;;;;;;;1.90;0.73;;;;;20.50;99972.00;;;;2204620;26;20257;-58
2024/04/08 04:46:05;;;;;;;1.97;0.90;;;;;20.50;99949.00;;;;2195590;26;20263;-59
2024/04/08 04:47:06;;;;;;;1.80;0.70;;;;;20.50;99931.00;;;;2204266;26;20706;-58
2024/04/08 04:48:06;;;;;;;2.23;0.70;;;;;20.50;99921.00;;;;2207956;26;20856;-59
2024/04/08 04:49:07;;;;;;;1.93;0.90;;;;;20.60;99926.00;;;;2203986;26;20298;-58
2024/04/08 04:50:07;;;;;;;1.70;0.67;;;;;20.50;99924.00;;;;2203986;26;20613;-58
2024/04/08 04:51:08;;;;;;;1.90;0.70;;;;;20.50;99918.00;;;;2193036;26;20634;-58
2024/04/08 04:52:11;;;;;;;1.87;0.73;;;;;20.50;99912.00;;;;2203119;26;20295;-59
2024/04/08 04:53:12;;;;;;;1.60;0.60;;;;;20.50;99912.00;;;;2203217;26;20291;-59
2024/04/08 04:54:12;;;;;;;2.60;1.17;;;;;20.50;99913.00;;;;2205724;26;20361;-58
2024/04/08 04:55:12;;;;;;;2.43;0.90;;;;;20.50;99899.00;;;;2202272;26;20295;-59
2024/04/08 04:56:13;;;;;;;2.13;0.70;;;;;20.50;99905.00;;;;2193711;26;20370;-58
2024/04/08 04:57:13;;;;;;;2.00;0.80;;;;;20.50;99904.00;;;;2204006;26;21099;-59
2024/04/08 04:58:13;;;;;;;2.00;0.80;;;;;20.50;99936.00;;;;2195704;26;20688;-58
2024/04/08 04:59:14;;;;;;;1.97;0.60;;;;;20.50;99912.00;;;;2207277;26;21047;-59
2024/04/08 05:00:14;;;;;;;2.97;1.10;;;;;20.50;99900.00;;;;2203295;26;20811;-59
2024/04/08 05:01:14;;;;;;;2.43;1.00;;;;;20.50;99899.00;;;;2202424;26;21181;-58
2024/04/08 05:02:15;;;;;;;1.77;0.87;;;;;20.50;99909.00;;;;2202275;26;21116;-59
2024/04/08 05:03:16;;;;;;;1.90;0.70;;;;;20.50;99905.00;;;;2204467;26;20721;-58
2024/04/08 05:04:16;;;;;;;2.13;0.80;;;;;20.50;99905.00;;;;2193074;26;20295;-59